Time;durP1;ratioP1;P1;durP2;ratioP2;P2;SDS_P1;SDS_P2;PMS_P1;PMS_P2;Temp;Humidity;BMP_temperature;BMP_pressure;BME280_temperature;BME280_humidity;BME280_pressure;Samples;Min_cycle;Max_cycle;Signal;HPM_P1;HPM_P2
2023/09/28 00:00:44;;;;;;;3.78;2.85;;;20.10;99.20;;;;;;6150485;23;20017;-74
2023/09/28 00:03:10;;;;;;;4.18;3.22;;;20.10;99.20;;;;;;6150284;23;20001;-74
2023/09/28 00:05:36;;;;;;;4.75;2.90;;;20.10;99.20;;;;;;6149479;23;20002;-74
2023/09/28 00:08:04;;;;;;;4.63;2.90;;;20.10;99.10;;;;;;6150513;23;20028;-74
2023/09/28 00:10:30;;;;;;;6.22;3.58;;;20.10;99.10;;;;;;6124978;23;20001;-74
2023/09/28 00:12:56;;;;;;;4.18;3.03;;;20.10;99.00;;;;;;6149326;23;20411;-74
2023/09/28 00:15:24;;;;;;;3.72;2.90;;;20.10;99.00;;;;;;6149525;23;20009;-74
2023/09/28 00:17:51;;;;;;;3.95;3.10;;;20.10;99.00;;;;;;6149067;23;20009;-74
2023/09/28 00:20:18;;;;;;;5.47;4.50;;;20.10;99.00;;;;;;6150743;23;20006;-74
2023/09/28 00:22:48;;;;;;;5.97;3.97;;;20.10;98.90;;;;;;6150893;23;20487;-74
2023/09/28 00:25:16;;;;;;;3.90;2.75;;;20.10;98.90;;;;;;6150281;23;20016;-74
2023/09/28 00:27:44;;;;;;;3.42;3.10;;;20.10;98.90;;;;;;6150211;23;20487;-74
2023/09/28 00:30:12;;;;;;;5.50;3.72;;;20.10;98.90;;;;;;6151041;23;20005;-74
2023/09/28 00:32:38;;;;;;;4.70;3.75;;;20.00;99.20;;;;;;6149832;23;20148;-74
2023/09/28 00:35:05;;;;;;;5.18;3.55;;;20.00;99.00;;;;;;6150900;23;20092;-74
2023/09/28 00:37:32;;;;;;;5.13;4.20;;;19.90;99.00;;;;;;6150725;23;20378;-74
2023/09/28 00:39:58;;;;;;;5.30;3.67;;;19.90;99.10;;;;;;6150692;23;20411;-75
2023/09/28 00:42:25;;;;;;;6.13;4.03;;;19.90;99.10;;;;;;6150600;23;20006;-74
2023/09/28 00:44:51;;;;;;;7.10;4.05;;;19.80;99.20;;;;;;6150217;23;20433;-74
2023/09/28 00:47:18;;;;;;;4.38;3.42;;;19.80;99.20;;;;;;6150231;23;20008;-74
2023/09/28 00:49:44;;;;;;;5.63;4.57;;;19.80;99.30;;;;;;6150626;23;20005;-74
2023/09/28 00:52:11;;;;;;;5.18;4.47;;;19.70;99.40;;;;;;6150806;23;20336;-74
2023/09/28 00:54:38;;;;;;;5.72;3.60;;;19.70;99.40;;;;;;6124462;23;20213;-75
2023/09/28 00:57:06;;;;;;;5.72;4.38;;;19.60;99.50;;;;;;6150899;23;20083;-74
2023/09/28 00:59:32;;;;;;;5.88;3.92;;;19.60;99.60;;;;;;6150753;23;20001;-75
2023/09/28 01:01:57;;;;;;;4.68;4.20;;;19.50;99.60;;;;;;6150179;23;20033;-74
2023/09/28 01:04:23;;;;;;;5.53;4.00;;;19.50;99.70;;;;;;6150546;23;20376;-74
2023/09/28 01:06:49;;;;;;;5.10;4.05;;;19.50;99.80;;;;;;6150700;23;20405;-74
2023/09/28 01:09:15;;;;;;;5.57;4.00;;;19.40;99.90;;;;;;6150888;23;20412;-75
2023/09/28 01:11:42;;;;;;;4.80;4.20;;;19.40;99.90;;;;;;6150209;23;20072;-74
2023/09/28 01:14:07;;;;;;;4.20;3.80;;;19.40;99.90;;;;;;6150685;23;20080;-74
2023/09/28 01:16:33;;;;;;;4.35;3.95;;;19.30;99.90;;;;;;6149815;23;20043;-74
2023/09/28 01:18:59;;;;;;;4.57;3.90;;;19.30;99.90;;;;;;6124526;23;20032;-74
2023/09/28 01:21:25;;;;;;;5.45;4.88;;;19.20;99.90;;;;;;6124053;23;20012;-74
2023/09/28 01:23:51;;;;;;;6.22;4.20;;;19.20;99.90;;;;;;6150242;23;20013;-74
2023/09/28 01:26:17;;;;;;;7.03;4.28;;;19.10;99.90;;;;;;6152129;23;20020;-74
2023/09/28 01:28:43;;;;;;;5.25;3.53;;;19.00;99.90;;;;;;6152438;23;20001;-74
2023/09/28 01:31:08;;;;;;;6.78;3.75;;;19.10;99.90;;;;;;6151802;23;20005;-74
2023/09/28 01:33:34;;;;;;;8.48;4.05;;;19.00;99.90;;;;;;6152381;23;20033;-74
2023/09/28 01:35:59;;;;;;;5.85;4.00;;;18.90;99.90;;;;;;6152849;23;20008;-74
2023/09/28 01:39:07;;;;;;;4.28;3.88;;;18.90;99.90;;;;;;6152428;23;20253;-74
2023/09/28 01:41:34;;;;;;;5.22;4.18;;;18.90;99.90;;;;;;6062257;23;20011;-75
2023/09/28 01:44:00;;;;;;;6.38;3.97;;;18.90;99.90;;;;;;6068709;23;20058;-74
2023/09/28 01:46:25;;;;;;;4.85;4.45;;;18.80;99.90;;;;;;6090528;23;20372;-74
2023/09/28 01:48:51;;;;;;;5.28;3.97;;;18.80;99.90;;;;;;6066611;23;20201;-75
2023/09/28 01:51:17;;;;;;;4.60;3.90;;;18.80;99.90;;;;;;6091168;23;20010;-74
2023/09/28 01:53:42;;;;;;;4.28;3.63;;;18.70;99.90;;;;;;6090658;23;20010;-74
2023/09/28 01:56:08;;;;;;;4.57;3.95;;;18.70;99.90;;;;;;6091062;23;20034;-74
2023/09/28 01:58:33;;;;;;;6.38;4.18;;;18.70;99.90;;;;;;6090710;23;20014;-74
2023/09/28 02:00:59;;;;;;;5.78;4.32;;;18.70;99.90;;;;;;6091004;23;20014;-74
2023/09/28 02:03:25;;;;;;;4.97;4.47;;;18.60;99.90;;;;;;6090377;23;20126;-74
2023/09/28 02:05:52;;;;;;;5.05;4.55;;;18.60;99.90;;;;;;6066438;23;20006;-74
2023/09/28 02:08:18;;;;;;;6.25;4.35;;;18.60;99.90;;;;;;6066541;23;20403;-74
2023/09/28 02:10:44;;;;;;;4.82;4.15;;;18.60;99.90;;;;;;6090415;23;20033;-74
2023/09/28 02:13:09;;;;;;;4.32;3.90;;;18.60;99.90;;;;;;6145214;23;20009;-74
2023/09/28 02:15:35;;;;;;;5.13;4.10;;;18.60;99.90;;;;;;6154574;23;19997;-75
2023/09/28 02:18:01;;;;;;;4.13;3.72;;;18.50;99.90;;;;;;6181312;23;20435;-74
2023/09/28 02:20:29;;;;;;;6.10;4.70;;;18.60;99.90;;;;;;6182231;23;20001;-74
2023/09/28 02:22:55;;;;;;;5.38;4.00;;;18.50;99.90;;;;;;6181458;23;20008;-74
2023/09/28 02:25:23;;;;;;;5.43;3.55;;;18.50;99.90;;;;;;6181871;23;20404;-75
2023/09/28 02:27:50;;;;;;;5.30;3.78;;;18.50;99.90;;;;;;6181640;23;20001;-74
2023/09/28 02:30:19;;;;;;;4.93;3.65;;;18.50;99.90;;;;;;6181306;23;20001;-74
2023/09/28 02:32:45;;;;;;;4.88;4.38;;;18.50;99.90;;;;;;6181609;23;19997;-74
2023/09/28 02:35:14;;;;;;;5.18;4.68;;;18.50;99.90;;;;;;6181940;23;20029;-74
2023/09/28 02:37:41;;;;;;;7.75;4.20;;;18.50;99.90;;;;;;6180976;23;20364;-74
2023/09/28 02:40:08;;;;;;;6.53;4.82;;;18.50;99.90;;;;;;6181964;23;20012;-74
2023/09/28 02:42:34;;;;;;;6.07;4.28;;;18.50;99.90;;;;;;6181208;23;20067;-74
2023/09/28 02:45:00;;;;;;;4.55;4.00;;;18.40;99.90;;;;;;6161531;23;20076;-74
2023/09/28 02:47:27;;;;;;;4.82;4.13;;;18.40;99.90;;;;;;6151679;23;20005;-74
2023/09/28 02:49:53;;;;;;;4.38;3.97;;;18.40;99.90;;;;;;6151703;23;20515;-74
2023/09/28 02:52:18;;;;;;;5.72;4.20;;;18.40;99.90;;;;;;6151854;23;20012;-74
2023/09/28 02:54:44;;;;;;;4.45;3.92;;;18.40;99.90;;;;;;6151665;23;20056;-74
2023/09/28 02:57:10;;;;;;;4.65;3.85;;;18.40;99.90;;;;;;6152346;23;20084;-74
2023/09/28 02:59:36;;;;;;;7.22;3.88;;;18.40;99.90;;;;;;6151666;23;20002;-74
2023/09/28 03:02:03;;;;;;;5.32;3.72;;;18.40;99.90;;;;;;6152256;23;20002;-74
2023/09/28 03:04:33;;;;;;;4.97;4.57;;;18.40;99.90;;;;;;6152513;23;20005;-74
2023/09/28 03:06:59;;;;;;;6.28;3.95;;;18.30;99.90;;;;;;6152356;23;20301;-74
2023/09/28 03:09:24;;;;;;;5.00;4.40;;;18.30;99.90;;;;;;6152538;23;20025;-74
2023/09/28 03:11:50;;;;;;;8.82;4.07;;;18.30;99.90;;;;;;6151668;23;19998;-74
2023/09/28 03:14:16;;;;;;;6.43;4.30;;;18.30;99.90;;;;;;6152580;23;20017;-74
2023/09/28 03:16:42;;;;;;;5.13;3.83;;;18.30;99.90;;;;;;6151969;23;20073;-74
2023/09/28 03:19:08;;;;;;;4.38;3.83;;;18.30;99.90;;;;;;6152535;23;20412;-74
2023/09/28 03:21:35;;;;;;;5.38;3.70;;;18.20;99.90;;;;;;6152121;23;20012;-74
2023/09/28 03:24:01;;;;;;;4.72;4.22;;;18.20;99.90;;;;;;6152277;23;20012;-74
2023/09/28 03:26:30;;;;;;;6.97;5.30;;;18.20;99.90;;;;;;6125554;23;20309;-74
2023/09/28 03:28:59;;;;;;;7.20;4.43;;;18.20;99.90;;;;;;6152165;23;20056;-74
2023/09/28 03:31:27;;;;;;;4.72;4.18;;;18.20;99.90;;;;;;6151682;23;19994;-74
2023/09/28 03:33:53;;;;;;;5.65;4.15;;;18.10;99.90;;;;;;6126149;23;20016;-74
2023/09/28 03:36:19;;;;;;;5.18;4.35;;;18.10;99.90;;;;;;6152171;23;20028;-74
2023/09/28 03:38:46;;;;;;;4.57;3.92;;;18.10;99.90;;;;;;6151961;23;20056;-74
2023/09/28 03:41:12;;;;;;;5.43;4.72;;;18.10;99.90;;;;;;6151452;23;20008;-74
2023/09/28 03:43:38;;;;;;;5.55;4.57;;;18.10;99.90;;;;;;6151481;23;20009;-75
2023/09/28 03:46:04;;;;;;;7.10;5.47;;;18.00;99.90;;;;;;6151990;23;20005;-74
2023/09/28 03:48:30;;;;;;;7.63;5.00;;;18.00;99.90;;;;;;6151766;23;20084;-74
2023/09/28 03:50:56;;;;;;;6.13;4.88;;;18.00;99.90;;;;;;6152056;23;20029;-75
2023/09/28 03:53:22;;;;;;;5.93;4.35;;;18.00;99.90;;;;;;6152052;23;20014;-74
2023/09/28 03:55:49;;;;;;;5.53;4.63;;;18.00;99.90;;;;;;6151324;23;20035;-74
2023/09/28 03:58:15;;;;;;;5.80;4.43;;;18.00;99.90;;;;;;6151977;23;20068;-74
2023/09/28 04:00:41;;;;;;;6.70;5.57;;;18.00;99.90;;;;;;6151785;23;20001;-75
2023/09/28 04:03:08;;;;;;;6.00;5.07;;;18.00;99.90;;;;;;6125675;23;20013;-74
2023/09/28 04:05:33;;;;;;;6.18;5.15;;;18.00;99.90;;;;;;6151874;23;20037;-74
2023/09/28 04:08:00;;;;;;;5.25;4.75;;;18.00;99.90;;;;;;6152237;23;20005;-74
2023/09/28 04:10:26;;;;;;;5.78;5.10;;;18.00;99.90;;;;;;6151102;23;20373;-74
2023/09/28 04:12:52;;;;;;;8.55;5.85;;;17.90;99.90;;;;;;6151836;23;20025;-74
2023/09/28 04:15:18;;;;;;;7.85;5.35;;;17.90;99.90;;;;;;6151955;23;20001;-74
2023/09/28 04:17:44;;;;;;;6.70;5.05;;;17.90;99.90;;;;;;6151635;23;20013;-74
2023/09/28 04:20:10;;;;;;;5.15;4.60;;;17.90;99.90;;;;;;6125252;23;20009;-74
2023/09/28 04:22:36;;;;;;;5.38;4.75;;;17.90;99.90;;;;;;6151949;23;20372;-73
2023/09/28 04:25:03;;;;;;;6.70;5.55;;;17.90;99.90;;;;;;6151175;23;20009;-74
2023/09/28 04:27:29;;;;;;;6.97;5.72;;;17.90;99.90;;;;;;6125495;23;20007;-74
2023/09/28 04:29:55;;;;;;;5.90;5.40;;;17.80;99.90;;;;;;6151573;23;20073;-74
2023/09/28 04:32:20;;;;;;;6.28;5.43;;;17.80;99.90;;;;;;6125511;23;20528;-74
2023/09/28 04:34:46;;;;;;;7.30;4.93;;;17.80;99.90;;;;;;6151347;23;20392;-74
2023/09/28 04:37:12;;;;;;;6.35;5.63;;;17.80;99.90;;;;;;6151608;23;20431;-74
2023/09/28 04:39:37;;;;;;;5.68;4.57;;;17.80;99.90;;;;;;6150882;23;20005;-74
2023/09/28 04:42:04;;;;;;;6.88;5.38;;;17.80;99.90;;;;;;6151144;23;20447;-74
2023/09/28 04:44:30;;;;;;;6.43;4.85;;;17.70;99.90;;;;;;6151510;23;20017;-74
2023/09/28 04:46:55;;;;;;;5.53;4.78;;;17.70;99.90;;;;;;6151189;23;20001;-74
2023/09/28 04:49:21;;;;;;;6.43;5.68;;;17.70;99.90;;;;;;6151658;23;20435;-74
2023/09/28 04:51:47;;;;;;;5.60;5.10;;;17.70;99.90;;;;;;6151235;23;19998;-74
2023/09/28 04:54:14;;;;;;;8.32;5.30;;;17.70;99.90;;;;;;6150839;23;20010;-74
2023/09/28 04:56:41;;;;;;;5.95;5.45;;;17.70;99.90;;;;;;6151112;23;20010;-74
2023/09/28 04:59:06;;;;;;;8.75;5.05;;;17.60;99.90;;;;;;6151222;23;19998;-74
2023/09/28 05:01:32;;;;;;;6.70;5.47;;;17.60;99.90;;;;;;6151349;23;20056;-74
2023/09/28 05:03:59;;;;;;;6.43;5.20;;;17.60;99.90;;;;;;6151224;23;20041;-74
2023/09/28 05:06:24;;;;;;;7.63;5.88;;;17.60;99.90;;;;;;6151170;23;20487;-74
2023/09/28 05:08:50;;;;;;;8.00;6.22;;;17.50;99.90;;;;;;6150805;23;20002;-74
2023/09/28 05:11:16;;;;;;;6.63;5.93;;;17.50;99.90;;;;;;6151322;23;20416;-74
2023/09/28 05:13:42;;;;;;;6.22;5.63;;;17.50;99.90;;;;;;6150733;23;20060;-74
2023/09/28 05:16:07;;;;;;;6.63;5.95;;;17.50;99.90;;;;;;6149222;23;20390;-74
2023/09/28 05:18:35;;;;;;;7.63;6.53;;;17.50;99.90;;;;;;6146815;23;20009;-74
2023/09/28 05:21:00;;;;;;;6.80;5.65;;;17.50;99.90;;;;;;6148967;23;20001;-74
2023/09/28 05:23:26;;;;;;;8.38;5.95;;;17.50;99.90;;;;;;6148436;23;20547;-74
2023/09/28 05:25:51;;;;;;;8.02;6.65;;;17.40;99.90;;;;;;6149934;23;20422;-74
2023/09/28 05:28:17;;;;;;;7.28;6.57;;;17.40;99.90;;;;;;6151174;23;20002;-74
2023/09/28 05:30:43;;;;;;;9.13;6.18;;;17.40;99.90;;;;;;6150290;23;20011;-73
2023/09/28 05:33:08;;;;;;;8.05;6.60;;;17.40;99.90;;;;;;6151153;23;20048;-74
2023/09/28 05:35:34;;;;;;;8.48;5.95;;;17.40;99.90;;;;;;6150581;23;20033;-74
2023/09/28 05:37:59;;;;;;;6.68;5.63;;;17.30;99.90;;;;;;6147248;23;20020;-74
2023/09/28 05:40:25;;;;;;;8.20;6.95;;;17.30;99.90;;;;;;6149595;23;19997;-74
2023/09/28 05:42:51;;;;;;;8.57;5.78;;;17.30;99.90;;;;;;6150703;23;20009;-74
2023/09/28 05:45:17;;;;;;;6.68;5.88;;;17.30;99.90;;;;;;6150712;23;20021;-75
2023/09/28 05:47:43;;;;;;;7.68;6.10;;;17.20;99.90;;;;;;6150452;23;20010;-71
2023/09/28 05:50:08;;;;;;;8.75;6.60;;;17.20;99.90;;;;;;6150150;23;20059;-71
2023/09/28 05:52:34;;;;;;;7.47;5.70;;;17.20;99.90;;;;;;6149665;23;20364;-71
2023/09/28 05:55:00;;;;;;;7.85;6.10;;;17.20;99.90;;;;;;6150584;23;20012;-72
2023/09/28 05:57:26;;;;;;;7.25;6.13;;;17.20;99.90;;;;;;6150243;23;20076;-72
2023/09/28 05:59:52;;;;;;;9.57;6.78;;;17.20;99.90;;;;;;6150466;23;20435;-71
2023/09/28 06:02:19;;;;;;;7.20;6.03;;;17.20;99.90;;;;;;6151393;23;20033;-71
2023/09/28 06:04:45;;;;;;;8.80;6.28;;;17.10;99.90;;;;;;6150665;23;20010;-72
2023/09/28 06:07:10;;;;;;;8.25;6.55;;;17.10;99.90;;;;;;6150821;23;20472;-72
2023/09/28 06:09:37;;;;;;;10.32;7.13;;;17.10;99.90;;;;;;6150751;23;20006;-72
2023/09/28 06:12:02;;;;;;;9.45;6.28;;;17.10;99.90;;;;;;6152211;23;20085;-72
2023/09/28 06:14:28;;;;;;;8.57;6.15;;;17.10;99.90;;;;;;6151581;23;20005;-72
2023/09/28 06:16:54;;;;;;;7.72;6.20;;;17.10;99.90;;;;;;6151614;23;20009;-72
2023/09/28 06:19:20;;;;;;;8.77;6.18;;;17.10;99.90;;;;;;6152156;23;20013;-72
2023/09/28 06:21:45;;;;;;;8.18;6.22;;;17.00;99.90;;;;;;6151445;23;20012;-72
2023/09/28 06:24:11;;;;;;;11.32;6.85;;;17.00;99.90;;;;;;6152776;23;20005;-72
2023/09/28 06:26:37;;;;;;;6.10;5.47;;;17.00;99.90;;;;;;6152150;23;20001;-72
2023/09/28 06:29:03;;;;;;;10.68;5.90;;;17.00;99.90;;;;;;6126510;23;20012;-72
2023/09/28 06:31:29;;;;;;;9.10;6.88;;;17.10;99.90;;;;;;6152556;23;20001;-71
2023/09/28 06:33:55;;;;;;;11.52;6.95;;;17.00;99.90;;;;;;6152255;23;20304;-72
2023/09/28 06:36:21;;;;;;;13.85;6.47;;;17.00;99.90;;;;;;6152406;23;20475;-71
2023/09/28 06:38:47;;;;;;;8.35;5.38;;;17.10;99.90;;;;;;6152484;23;20029;-72
2023/09/28 06:41:13;;;;;;;12.10;6.40;;;17.00;99.90;;;;;;6152718;23;20005;-71
2023/09/28 06:43:39;;;;;;;6.82;5.78;;;17.10;99.90;;;;;;6151644;23;20381;-72
2023/09/28 06:46:05;;;;;;;10.98;5.22;;;17.10;99.90;;;;;;6152672;23;20008;-71
2023/09/28 06:48:31;;;;;;;9.27;5.03;;;17.10;99.90;;;;;;6152483;23;19997;-72
2023/09/28 06:50:57;;;;;;;10.63;5.70;;;17.10;99.90;;;;;;6151875;23;20002;-71
2023/09/28 06:53:24;;;;;;;9.00;6.57;;;17.10;99.90;;;;;;6152561;23;20321;-71
2023/09/28 06:55:50;;;;;;;12.30;5.22;;;17.10;99.90;;;;;;6126179;23;20008;-71
2023/09/28 06:58:15;;;;;;;13.15;5.93;;;17.20;99.90;;;;;;6152430;23;19998;-71
2023/09/28 07:00:42;;;;;;;11.43;5.10;;;17.20;99.90;;;;;;6151968;23;20001;-71
2023/09/28 07:03:08;;;;;;;13.15;4.80;;;17.20;99.90;;;;;;6151555;23;20468;-71
2023/09/28 07:05:34;;;;;;;11.95;5.22;;;17.20;99.90;;;;;;6150296;23;20009;-72
2023/09/28 07:08:00;;;;;;;11.32;4.60;;;17.20;99.90;;;;;;6151343;23;20010;-72
2023/09/28 07:10:26;;;;;;;8.95;3.72;;;17.30;99.90;;;;;;6151407;23;20435;-71
2023/09/28 07:12:52;;;;;;;15.75;6.13;;;17.30;99.90;;;;;;6151562;23;20103;-71
2023/09/28 07:15:17;;;;;;;17.98;5.50;;;17.30;99.90;;;;;;6151494;23;20052;-72
2023/09/28 07:17:44;;;;;;;13.10;4.90;;;17.30;99.90;;;;;;6151758;23;20001;-72
2023/09/28 07:20:11;;;;;;;11.80;4.55;;;17.40;99.90;;;;;;6125379;23;20072;-71
2023/09/28 07:22:37;;;;;;;14.48;5.18;;;17.40;99.90;;;;;;6150910;23;19998;-72
2023/09/28 07:25:03;;;;;;;13.48;4.38;;;17.50;99.90;;;;;;6151349;23;20077;-72
2023/09/28 07:27:32;;;;;;;13.05;4.43;;;17.50;99.90;;;;;;6152268;23;20326;-72
2023/09/28 07:29:59;;;;;;;14.25;4.72;;;17.50;99.90;;;;;;6125443;23;20390;-72
2023/09/28 07:32:26;;;;;;;17.90;4.50;;;17.60;99.90;;;;;;6151951;23;20056;-72
2023/09/28 07:34:52;;;;;;;14.70;4.00;;;17.60;99.90;;;;;;6151366;23;20008;-72
2023/09/28 07:37:18;;;;;;;17.67;4.05;;;17.60;99.90;;;;;;6152030;23;20006;-72
2023/09/28 07:39:44;;;;;;;16.13;4.80;;;17.70;99.90;;;;;;6152083;23;20005;-72
2023/09/28 07:42:09;;;;;;;25.50;5.65;;;17.70;99.90;;;;;;6151781;23;20451;-72
2023/09/28 07:44:35;;;;;;;15.60;4.53;;;17.80;99.90;;;;;;6151047;23;20009;-72
2023/09/28 07:47:00;;;;;;;17.10;3.70;;;17.80;99.90;;;;;;6124541;23;20079;-71
2023/09/28 07:49:26;;;;;;;17.83;4.75;;;17.80;99.90;;;;;;6150815;23;19998;-72
2023/09/28 07:51:55;;;;;;;20.73;5.07;;;17.90;99.90;;;;;;6150379;23;20002;-72
2023/09/28 07:54:20;;;;;;;19.92;4.13;;;17.90;99.90;;;;;;6151043;23;20450;-71
2023/09/28 07:56:46;;;;;;;19.48;3.70;;;18.00;99.90;;;;;;6150923;23;20066;-72
2023/09/28 07:59:11;;;;;;;20.80;4.30;;;18.00;99.90;;;;;;6151237;23;20033;-72
2023/09/28 08:01:38;;;;;;;21.08;3.65;;;18.10;99.90;;;;;;6151042;23;20049;-72
2023/09/28 08:04:05;;;;;;;19.27;5.07;;;18.10;99.90;;;;;;6150807;23;20068;-72
2023/09/28 08:06:32;;;;;;;19.80;3.97;;;18.20;99.90;;;;;;6151643;23;19998;-72
2023/09/28 08:08:58;;;;;;;21.27;5.55;;;18.20;99.90;;;;;;6151372;23;20028;-72
2023/09/28 08:11:23;;;;;;;20.95;4.95;;;18.30;99.90;;;;;;6151739;23;20420;-72
2023/09/28 08:13:49;;;;;;;18.80;4.32;;;18.30;99.90;;;;;;6151309;23;20006;-72
2023/09/28 08:16:14;;;;;;;14.95;5.57;;;18.40;99.90;;;;;;6125323;23;20420;-72
2023/09/28 08:18:40;;;;;;;14.43;3.88;;;18.40;99.90;;;;;;6150608;23;20002;-72
2023/09/28 08:21:05;;;;;;;14.25;3.47;;;18.40;99.90;;;;;;6151302;23;20006;-72
2023/09/28 08:23:32;;;;;;;22.15;4.40;;;18.50;99.90;;;;;;6151358;23;20424;-72
2023/09/28 08:25:57;;;;;;;18.45;4.22;;;18.50;99.90;;;;;;6150928;23;20001;-72
2023/09/28 08:28:24;;;;;;;18.95;5.03;;;18.50;99.90;;;;;;6151627;23;20010;-72
2023/09/28 08:30:49;;;;;;;16.98;3.50;;;18.50;99.90;;;;;;6150306;23;20001;-72
2023/09/28 08:33:16;;;;;;;14.75;3.28;;;18.70;99.90;;;;;;6151184;23;20001;-72
2023/09/28 08:35:50;;;;;;;20.67;4.30;;;18.60;99.90;;;;;;6150535;23;20001;-71
2023/09/28 08:38:16;;;;;;;15.10;3.67;;;18.70;99.90;;;;;;6151479;23;20005;-72
2023/09/28 08:40:42;;;;;;;18.05;3.58;;;18.70;99.90;;;;;;6151184;23;19997;-71
2023/09/28 08:43:11;;;;;;;20.17;5.15;;;18.80;99.90;;;;;;6151418;23;19998;-72
2023/09/28 08:45:41;;;;;;;24.88;4.28;;;18.80;99.90;;;;;;6150125;23;20017;-72
2023/09/28 08:48:09;;;;;;;14.93;3.15;;;18.90;99.90;;;;;;6149780;23;20013;-72
2023/09/28 08:50:38;;;;;;;15.40;3.95;;;18.90;99.90;;;;;;6150991;23;20002;-72
2023/09/28 08:53:05;;;;;;;19.92;3.63;;;19.10;99.90;;;;;;6150501;23;20010;-72
2023/09/28 08:55:33;;;;;;;23.20;4.97;;;19.20;99.90;;;;;;6150867;23;20012;-72
2023/09/28 08:57:58;;;;;;;11.15;3.40;;;19.40;99.90;;;;;;6150548;23;20442;-72
2023/09/28 09:00:26;;;;;;;18.67;3.72;;;19.50;99.90;;;;;;6150345;23;20001;-72
2023/09/28 09:02:52;;;;;;;16.15;4.55;;;19.60;99.90;;;;;;6150582;23;20072;-72
2023/09/28 09:05:18;;;;;;;18.00;4.05;;;19.70;99.90;;;;;;6150022;23;20010;-72
2023/09/28 09:07:44;;;;;;;18.65;4.40;;;19.80;99.90;;;;;;6150734;23;20267;-72
2023/09/28 09:10:16;;;;;;;20.80;4.97;;;19.90;99.80;;;;;;6150308;23;20005;-75
2023/09/28 09:12:42;;;;;;;15.57;3.70;;;19.90;99.50;;;;;;6150715;23;19997;-75
2023/09/28 09:15:08;;;;;;;14.48;3.33;;;20.00;99.30;;;;;;6149488;23;20085;-74
2023/09/28 09:17:35;;;;;;;12.75;3.67;;;20.10;99.20;;;;;;6150832;23;20009;-74
2023/09/28 09:20:01;;;;;;;14.45;3.83;;;20.10;99.10;;;;;;6149932;23;20005;-75
2023/09/28 09:22:28;;;;;;;16.77;3.45;;;20.20;99.00;;;;;;6150728;23;20032;-75
2023/09/28 09:25:00;;;;;;;17.95;3.95;;;20.20;98.80;;;;;;6150041;23;20529;-75
2023/09/28 09:27:27;;;;;;;20.83;4.63;;;20.20;98.90;;;;;;6124793;23;20006;-75
2023/09/28 09:30:08;;;;;;;19.67;4.25;;;20.20;98.80;;;;;;6150159;23;20060;-74
2023/09/28 09:32:35;;;;;;;17.23;4.03;;;20.20;98.70;;;;;;6124941;23;20037;-74
2023/09/28 09:35:00;;;;;;;10.07;3.78;;;20.10;98.70;;;;;;6150809;23;20025;-74
2023/09/28 09:37:26;;;;;;;20.92;4.68;;;20.10;98.80;;;;;;6150433;23;20067;-74
2023/09/28 09:39:52;;;;;;;13.63;2.92;;;20.20;98.90;;;;;;6124090;23;20006;-75
2023/09/28 09:42:27;;;;;;;19.25;4.78;;;20.30;98.60;;;;;;6124879;23;20005;-75
2023/09/28 09:44:55;;;;;;;21.33;4.72;;;20.40;98.40;;;;;;6141408;23;20224;-74
2023/09/28 09:47:20;;;;;;;11.88;3.28;;;20.40;98.30;;;;;;6182020;23;20305;-74
2023/09/28 09:49:49;;;;;;;22.95;5.05;;;20.40;98.10;;;;;;6182129;23;20001;-74
2023/09/28 09:52:18;;;;;;;11.93;3.92;;;20.40;98.00;;;;;;6181421;23;19997;-74
2023/09/28 09:54:45;;;;;;;21.52;4.25;;;20.40;98.00;;;;;;6181933;23;20028;-74
2023/09/28 09:57:14;;;;;;;17.80;3.80;;;20.40;98.00;;;;;;6181668;23;19997;-74
2023/09/28 09:59:46;;;;;;;14.00;3.75;;;20.40;98.10;;;;;;6181784;23;20139;-74
2023/09/28 10:02:22;;;;;;;11.75;3.05;;;20.40;98.10;;;;;;6182626;23;20001;-74
2023/09/28 10:04:51;;;;;;;22.08;4.75;;;20.40;98.00;;;;;;6182323;23;20009;-74
2023/09/28 10:07:18;;;;;;;15.00;3.20;;;20.40;97.90;;;;;;6182448;23;20001;-75
2023/09/28 10:09:44;;;;;;;21.77;3.90;;;20.50;98.00;;;;;;6182257;23;20067;-74
2023/09/28 10:12:11;;;;;;;20.08;4.28;;;20.50;97.80;;;;;;6182547;23;20012;-74
2023/09/28 10:14:38;;;;;;;15.73;3.72;;;20.50;97.80;;;;;;6155428;23;20009;-74
2023/09/28 10:17:04;;;;;;;17.65;3.55;;;20.60;97.70;;;;;;6182121;23;20080;-75
2023/09/28 10:19:30;;;;;;;16.60;5.13;;;20.60;97.70;;;;;;6156139;23;20486;-74
2023/09/28 10:21:56;;;;;;;15.80;3.90;;;20.70;97.60;;;;;;6182166;23;20435;-74
2023/09/28 10:24:35;;;;;;;17.52;3.45;;;20.80;97.50;;;;;;6182148;23;20016;-74
2023/09/28 10:27:10;;;;;;;16.67;4.30;;;20.90;97.40;;;;;;6181669;23;20068;-74
2023/09/28 10:29:37;;;;;;;16.02;3.58;;;21.00;97.20;;;;;;6155764;23;20029;-74
2023/09/28 10:32:30;;;;;;;17.98;3.60;;;21.10;97.20;;;;;;6181960;23;20064;-74
2023/09/28 10:35:20;;;;;;;17.42;3.60;;;21.20;97.00;;;;;;6181321;23;20085;-75
2023/09/28 10:38:17;;;;;;;9.82;3.42;;;21.40;96.90;;;;;;6182064;23;20009;-73
2023/09/28 10:40:47;;;;;;;17.52;4.00;;;21.50;96.70;;;;;;6181415;23;20084;-74
2023/09/28 10:43:27;;;;;;;15.73;3.75;;;21.50;96.40;;;;;;6181353;23;20012;-76
2023/09/28 10:45:52;;;;;;;12.80;3.67;;;21.50;96.20;;;;;;6181149;23;20020;-74
2023/09/28 10:48:18;;;;;;;14.60;3.33;;;21.40;96.20;;;;;;6154927;23;20076;-74
2023/09/28 10:50:46;;;;;;;12.80;3.15;;;21.50;96.20;;;;;;6181000;23;20031;-74
2023/09/28 10:53:12;;;;;;;18.38;3.83;;;21.40;96.00;;;;;;6181187;23;20028;-75
2023/09/28 10:55:40;;;;;;;13.80;2.95;;;21.40;95.90;;;;;;6180535;23;20001;-74
2023/09/28 10:58:07;;;;;;;17.70;4.40;;;21.40;95.90;;;;;;6180444;23;20087;-74
2023/09/28 11:00:32;;;;;;;18.85;4.20;;;21.50;96.10;;;;;;6181930;23;20028;-75
2023/09/28 11:02:58;;;;;;;14.07;2.92;;;21.60;96.10;;;;;;6181686;23;20012;-75
2023/09/28 11:05:25;;;;;;;17.23;3.90;;;21.70;95.90;;;;;;6181504;23;20028;-75
2023/09/28 11:07:51;;;;;;;17.80;4.38;;;21.70;95.60;;;;;;6180948;23;20001;-74
2023/09/28 11:10:16;;;;;;;19.08;4.15;;;21.80;95.40;;;;;;6181184;23;20462;-74
2023/09/28 11:12:42;;;;;;;10.77;3.47;;;21.80;95.30;;;;;;6154943;23;20013;-75
2023/09/28 11:15:09;;;;;;;28.38;5.15;;;21.80;95.20;;;;;;6181520;23;20005;-75
2023/09/28 11:17:35;;;;;;;16.85;3.80;;;21.80;95.20;;;;;;6182197;23;20005;-74
2023/09/28 11:20:04;;;;;;;11.90;3.70;;;21.90;95.10;;;;;;6181756;23;20005;-75
2023/09/28 11:22:30;;;;;;;14.38;2.53;;;22.00;94.80;;;;;;6181622;23;20012;-74
2023/09/28 11:24:56;;;;;;;17.45;4.07;;;22.00;94.80;;;;;;6181007;23;20419;-74
2023/09/28 11:27:23;;;;;;;12.68;3.78;;;22.00;94.80;;;;;;6181643;23;20028;-74
2023/09/28 11:29:55;;;;;;;16.77;4.60;;;22.00;94.80;;;;;;6181695;23;20001;-75
2023/09/28 11:32:21;;;;;;;15.38;3.13;;;21.90;94.80;;;;;;6181471;23;20054;-75
2023/09/28 11:34:47;;;;;;;14.73;3.92;;;21.90;94.80;;;;;;6181736;23;20080;-74
2023/09/28 11:37:14;;;;;;;12.60;3.25;;;21.90;94.90;;;;;;6181034;23;20020;-74
2023/09/28 11:39:40;;;;;;;10.82;3.65;;;21.90;94.90;;;;;;6180524;23;20004;-74
2023/09/28 11:42:07;;;;;;;17.10;4.03;;;22.00;95.00;;;;;;6181667;23;20487;-74
2023/09/28 11:44:34;;;;;;;12.45;3.88;;;22.00;95.00;;;;;;6167385;23;20021;-74
2023/09/28 11:47:01;;;;;;;16.40;3.92;;;22.10;94.80;;;;;;6152197;23;20029;-74
2023/09/28 11:49:28;;;;;;;16.10;4.00;;;22.10;94.70;;;;;;6125547;23;20010;-75
2023/09/28 11:51:53;;;;;;;14.30;3.75;;;22.10;94.60;;;;;;6125043;23;20083;-75
2023/09/28 11:54:20;;;;;;;17.52;3.40;;;22.10;94.60;;;;;;6124588;23;20010;-74
2023/09/28 11:56:46;;;;;;;13.07;3.55;;;22.10;94.60;;;;;;6151160;23;20002;-74
2023/09/28 11:59:16;;;;;;;15.70;3.30;;;22.10;94.60;;;;;;6125575;23;20006;-72
2023/09/28 12:01:43;;;;;;;16.00;3.38;;;22.20;94.40;;;;;;6151333;23;20001;-72
2023/09/28 12:04:09;;;;;;;14.63;4.20;;;22.20;94.40;;;;;;6125397;23;20009;-72
2023/09/28 12:06:35;;;;;;;18.50;3.55;;;22.30;94.40;;;;;;6151573;23;20305;-72
2023/09/28 12:09:01;;;;;;;11.77;3.45;;;22.30;94.30;;;;;;6150009;23;20005;-72
2023/09/28 12:11:27;;;;;;;13.93;4.40;;;22.40;94.20;;;;;;6151489;23;20002;-72
2023/09/28 12:13:53;;;;;;;11.90;2.97;;;22.40;94.20;;;;;;6151515;23;20093;-72
2023/09/28 12:16:22;;;;;;;12.60;2.92;;;22.50;94.10;;;;;;6151288;23;20002;-72
2023/09/28 12:18:48;;;;;;;14.50;4.57;;;22.50;94.00;;;;;;6151399;23;19997;-72
2023/09/28 12:21:14;;;;;;;15.15;3.70;;;22.60;93.90;;;;;;6151549;23;20002;-72
2023/09/28 12:23:40;;;;;;;11.55;3.17;;;22.60;93.90;;;;;;6150530;23;20021;-73
2023/09/28 12:26:06;;;;;;;17.13;4.25;;;22.50;93.80;;;;;;6151317;23;20053;-72
2023/09/28 12:28:31;;;;;;;14.27;2.83;;;22.50;93.70;;;;;;6125174;23;20005;-72
2023/09/28 12:30:58;;;;;;;15.55;3.92;;;22.50;93.70;;;;;;6150843;23;20012;-72
2023/09/28 12:33:24;;;;;;;9.93;2.85;;;22.50;93.70;;;;;;6151397;23;20040;-72
2023/09/28 12:35:50;;;;;;;16.13;3.92;;;22.50;93.60;;;;;;6151183;23;20033;-72
2023/09/28 12:38:16;;;;;;;10.75;3.22;;;22.50;93.60;;;;;;6150456;23;20332;-72
2023/09/28 12:40:42;;;;;;;12.38;4.30;;;22.50;93.50;;;;;;6150992;23;20001;-72